Pearl Of Scandinavia — OWFU2 — position and weather

sailwx.info

Track history (hours):
 
Tides and Currents Weather Stations Pressure Air Temp Water Temp Dewpoint Dewpoint Depression Visibility Wind Speed Wind Dir Waves Ship Positions

Pearl Of Scandinavia

Last reported at 2015-Mar-04 22:33 UTC. Time now 2015-Mar-04 22:47 UTC.
Position N 57°22' E 011°33'.

Length 176.4 m; beam 34 m; draft 6.215 m.

Type: Ship. MMSI: 219945000.

Date/timePositionNaut miles runAvg speedWind from/ knotsBaromVisibWave heightAir tempDewpointWater temp
2015-Mar-04 22:33N 57°22' E 011°33'1616.0
2015-Mar-04 21:33N 57°07' E 011°42'1615.7
2015-Mar-04 20:33N 56°52' E 011°51'1615.9
2015-Mar-04 19:33N 56°39' E 012°07'1616.0
2015-Mar-04 18:34N 56°24' E 012°19'1716.6
2015-Mar-04 17:34N 56°09' E 012°31'1615.8
2015-Mar-04 16:33N 55°55' E 012°44'1413.5
2015-Mar-04 15:34N 55°42' E 012°36'0 0.3
2015-Mar-04 14:33N 55°42' E 012°36'0 0.0
2015-Mar-04 13:33N 55°42' E 012°36'0 0.0
2015-Mar-04 12:30N 55°42' E 012°36'0 0.0
2015-Mar-04 11:33N 55°42' E 012°36'0 0.0
2015-Mar-04 10:33N 55°42' E 012°36'0 0.0
2015-Mar-04 09:33N 55°42' E 012°36'0 0.2
2015-Mar-04 08:33N 55°42' E 012°36'1211.7
2015-Mar-04 07:33N 55°54' E 012°39'1414.1
2015-Mar-04 06:33N 56°07' E 012°31'1515.2
2015-Mar-04 05:33N 56°21' E 012°21'1615.5
2015-Mar-04 04:33N 56°36' E 012°13'1615.7
2015-Mar-04 03:33N 56°51' E 012°05'1615.8
2015-Mar-04 02:33N 57°06' E 011°56'1615.9
2015-Mar-04 01:33N 57°21' E 011°44'1616.1
2015-Mar-04 00:33N 57°35' E 011°29'1717.2
2015-Mar-03 23:33N 57°50' E 011°16'1615.7
2015-Mar-03 22:33N 58°06' E 011°08'1616.0
2015-Mar-03 21:34N 58°21' E 010°59'1615.8
2015-Mar-03 20:33N 58°36' E 010°50'1515.4
2015-Mar-03 19:33N 58°51' E 010°44'1616.1
2015-Mar-03 18:33N 59°07' E 010°39'1717.4
2015-Mar-03 17:33N 59°24' E 010°33'1716.6
2015-Mar-03 16:33N 59°41' E 010°37'1413.4
2015-Mar-03 15:32N 59°54' E 010°43'1 0.7
2015-Mar-03 14:32N 59°54' E 010°45'0 0.0
2015-Mar-03 13:29N 59°54' E 010°45'0 0.0
2015-Mar-03 12:32N 59°54' E 010°45'0 0.0
2015-Mar-03 11:29N 59°54' E 010°45'0 0.0
2015-Mar-03 10:32N 59°54' E 010°45'0 0.0
2015-Mar-03 09:32N 59°54' E 010°45'0 0.1
2015-Mar-03 08:29N 59°54' E 010°45'2512.9
2015-Mar-03 06:33N 59°30' E 010°35'1716.6
2015-Mar-03 05:33N 59°13' E 010°38'1716.6
2015-Mar-03 04:33N 58°57' E 010°37'1817.6
2015-Mar-03 03:33N 58°39' E 010°33'1716.8
2015-Mar-03 02:33N 58°23' E 010°42'1716.7
2015-Mar-03 01:33N 58°07' E 010°53'1716.6
2015-Mar-03 00:33N 57°52' E 011°03'1616.4
2015-Mar-02 23:33N 57°37' E 011°16'1616.3
2015-Mar-02 22:33N 57°23' E 011°32'1716.7
2015-Mar-02 21:32N 57°07' E 011°42'1616.5
2015-Mar-02 20:33N 56°52' E 011°54'1615.9
2015-Mar-02 19:33N 56°38' E 012°08'1716.5
2015-Mar-02 18:33N 56°23' E 012°20'1615.9
2015-Mar-02 17:33N 56°09' E 012°32'1615.5
2015-Mar-02 16:33N 55°55' E 012°44'1313.4
2015-Mar-02 15:33N 55°42' E 012°36'0 0.1
2015-Mar-02 14:32N 55°42' E 012°36'0 0.0
2015-Mar-02 13:32N 55°42' E 012°36'0 0.0
2015-Mar-02 12:32N 55°42' E 012°36'0 0.0
2015-Mar-02 11:32N 55°42' E 012°36'0 0.0
2015-Mar-02 10:32N 55°42' E 012°36'0 0.0
2015-Mar-02 09:32N 55°42' E 012°36'0 0.0
2015-Mar-02 08:32N 55°42' E 012°36'0 0.0
2015-Mar-02 07:33N 55°42' E 012°36'8 8.3
2015-Mar-02 06:33N 55°50' E 012°41'1414.2
2015-Mar-02 05:33N 56°04' E 012°38'1514.6
2015-Mar-02 04:33N 56°16' E 012°24'1717.2
2015-Mar-02 03:33N 56°33' E 012°15'1818.2
2015-Mar-02 02:33N 56°50' E 012°05'1818.1
2015-Mar-02 01:32N 57°08' E 011°56'1717.7
2015-Mar-02 00:33N 57°23' E 011°41'1817.5
2015-Mar-01 23:33N 57°39' E 011°25'1717.2
2015-Mar-01 22:33N 57°55' E 011°13'1615.8
2015-Mar-01 21:33N 58°10' E 011°05'1414.5
2015-Mar-01 20:33N 58°24' E 010°58'1414.4
2015-Mar-01 19:33N 58°38' E 010°50'1413.6
2015-Mar-01 18:33N 58°51' E 010°44'1413.5
2015-Mar-01 17:33N 59°04' E 010°40'1515.4
2015-Mar-01 16:34N 59°19' E 010°35'1615.5
2015-Mar-01 15:33N 59°35' E 010°38'1913.9
2015-Mar-01 14:13N 59°54' E 010°41'2 2.8
2015-Mar-01 13:33N 59°54' E 010°45'0 0.0
2015-Mar-01 12:33N 59°54' E 010°45'0 0.0
2015-Mar-01 11:33N 59°54' E 010°45'0 0.0
2015-Mar-01 10:33N 59°54' E 010°45'0 0.0
2015-Mar-01 09:33N 59°54' E 010°45'0 0.1
2015-Mar-01 08:30N 59°54' E 010°45'2613.4
2015-Mar-01 06:33N 59°28' E 010°34'1716.6
2015-Mar-01 05:33N 59°12' E 010°39'1616.4
2015-Mar-01 04:33N 58°56' E 010°43'1716.4
2015-Mar-01 03:33N 58°39' E 010°47'1616.7
2015-Mar-01 02:33N 58°24' E 010°56'1716.6
2015-Mar-01 01:34N 58°08' E 011°06'1716.6
2015-Mar-01 00:33N 57°52' E 011°15'1616.3
2015-Feb-28 23:33N 57°36' E 011°25'1616.5
2015-Feb-28 22:33N 57°21' E 011°34'1716.8
2015-Feb-28 21:33N 57°05' E 011°44'1616.0
2015-Feb-28 20:33N 56°50' E 011°56'1615.9
2015-Feb-28 19:33N 56°36' E 012°10'1616.1
2015-Feb-28 18:33N 56°22' E 012°21'1616.3
2015-Feb-28 17:33N 56°07' E 012°34'1615.7
2015-Feb-28 16:33N 55°52' E 012°45'1111.2
2015-Feb-28 15:34N 55°42' E 012°36'0 0.0
2015-Feb-28 14:32N 55°42' E 012°36'0 0.0
2015-Feb-28 13:32N 55°42' E 012°36'0 0.0
2015-Feb-28 12:32N 55°42' E 012°36'0 0.0
2015-Feb-28 11:32N 55°42' E 012°36'0 0.0
2015-Feb-28 10:32N 55°42' E 012°36'0 0.0
2015-Feb-28 09:32N 55°42' E 012°36'0 0.3
2015-Feb-28 08:33N 55°42' E 012°36'1111.5
2015-Feb-28 07:33N 55°54' E 012°39'1313.3
2015-Feb-28 06:33N 56°06' E 012°32'1615.9
2015-Feb-28 05:33N 56°21' E 012°21'1716.8
2015-Feb-28 04:33N 56°37' E 012°12'1717.3
2015-Feb-28 03:33N 56°54' E 012°03'1817.5
2015-Feb-28 02:31N 57°11' E 011°54'1617.1
2015-Feb-28 01:33N 57°25' E 011°39'1717.3
2015-Feb-28 00:33N 57°41' E 011°24'1717.3
2015-Feb-27 23:33N 57°57' E 011°13'1615.5
2015-Feb-27 22:33N 58°12' E 011°04'1414.4
2015-Feb-27 21:33N 58°26' E 010°56'3315.5
2015-Feb-27 19:26N 58°58' E 010°42'1516.7
2015-Feb-27 18:33N 59°12' E 010°37'1616.4
2015-Feb-27 17:33N 59°29' E 010°34'1815.0
2015-Feb-27 16:22N 59°46' E 010°33'1011.6
2015-Feb-27 15:33N 59°54' E 010°45'0 0.0
2015-Feb-27 14:33N 59°54' E 010°45'0 0.0
2015-Feb-27 13:33N 59°54' E 010°45'0 0.0
2015-Feb-27 12:33N 59°54' E 010°45'0 0.0
2015-Feb-27 11:30N 59°54' E 010°45'0 0.0
2015-Feb-27 10:30N 59°54' E 010°45'0 0.0
2015-Feb-27 09:33N 59°54' E 010°45'0 0.1
2015-Feb-27 08:34N 59°54' E 010°45'2713.6
2015-Feb-27 06:34N 59°27' E 010°34'1616.4
2015-Feb-27 05:33N 59°11' E 010°39'3215.9
2015-Feb-27 03:33N 58°40' E 010°47'1616.4
2015-Feb-27 02:33N 58°24' E 010°56'1616.4
2015-Feb-27 01:33N 58°08' E 011°05'1616.3
2015-Feb-27 00:33N 57°53' E 011°14'1616.0
2015-Feb-26 23:33N 57°37' E 011°23'1615.7
2015-Feb-26 22:33N 57°23' E 011°33'1716.0
2015-Feb-26 21:32N 57°07' E 011°42'1516.0
2015-Feb-26 20:33N 56°53' E 011°52'1616.3
2015-Feb-26 19:33N 56°39' E 012°07'1615.7
2015-Feb-26 18:33N 56°24' E 012°19'1615.7
2015-Feb-26 17:33N 56°10' E 012°30'1615.7
2015-Feb-26 16:33N 55°56' E 012°43'1313.5
2015-Feb-26 15:33N 55°43' E 012°38'1 1.3
2015-Feb-26 14:32N 55°42' E 012°36'0 0.0
2015-Feb-26 13:29N 55°42' E 012°36'0 0.0
2015-Feb-26 12:32N 55°42' E 012°36'0 0.0
2015-Feb-26 11:32N 55°42' E 012°36'0 0.0
2015-Feb-26 10:29N 55°42' E 012°36'0 0.0
2015-Feb-26 09:32N 55°42' E 012°36'0 0.2
2015-Feb-26 08:34N 55°42' E 012°36'1110.9
2015-Feb-26 07:33N 55°53' E 012°40'1313.3
2015-Feb-26 06:33N 56°06' E 012°34'1515.4
2015-Feb-26 05:33N 56°20' E 012°22'1817.5
2015-Feb-26 04:31N 56°37' E 012°14'1717.5
2015-Feb-26 03:33N 56°54' E 012°05'1817.9
2015-Feb-26 02:33N 57°10' E 011°53'1717.1
2015-Feb-26 01:33N 57°25' E 011°38'1817.7
2015-Feb-26 00:33N 57°41' E 011°24'1717.1
2015-Feb-25 23:33N 57°57' E 011°13'1615.8
2015-Feb-25 22:33N 58°12' E 011°04'1515.1
2015-Feb-25 21:33N 58°27' E 010°55'1515.0
2015-Feb-25 20:33N 58°41' E 010°48'1515.2
2015-Feb-25 19:33N 58°56' E 010°43'1616.3
2015-Feb-25 18:33N 59°12' E 010°38'1716.6
2015-Feb-25 17:33N 59°29' E 010°34'25 2.7
2015-Feb-25 08:18N 59°53' E 010°41'2514.5
2015-Feb-25 06:33N 59°28' E 010°34'1616.4
2015-Feb-25 05:34N 59°12' E 010°39'3216.0
2015-Feb-25 03:32N 58°40' E 010°46'1515.8
2015-Feb-25 02:33N 58°25' E 010°55'1615.8
2015-Feb-25 01:34N 58°10' E 011°05'1616.0
2015-Feb-25 00:34N 57°55' E 011°14'1615.8
2015-Feb-24 23:34N 57°40' E 011°23'1616.1
2015-Feb-24 22:34N 57°24' E 011°32'1616.0
2015-Feb-24 21:34N 57°09' E 011°41'1515.3
2015-Feb-24 20:34N 56°55' E 011°49'1615.7
2015-Feb-24 19:34N 56°41' E 012°05'1615.6
2015-Feb-24 18:34N 56°27' E 012°17'1616.1
2015-Feb-24 17:34N 56°13' E 012°28'1716.7
2015-Feb-24 16:34N 55°58' E 012°42'1514.8
2015-Feb-24 15:33N 55°43' E 012°38'2 1.6
2015-Feb-24 14:32N 55°42' E 012°36'0 0.0
2015-Feb-24 13:32N 55°42' E 012°36'0 0.0
2015-Feb-24 12:32N 55°42' E 012°36'0 0.0
2015-Feb-24 11:32N 55°42' E 012°36'0 0.0
2015-Feb-24 10:32N 55°42' E 012°36'0 0.0
2015-Feb-24 09:32N 55°42' E 012°36'0 0.4
2015-Feb-24 08:33N 55°42' E 012°36'1111.5
2015-Feb-24 07:34N 55°54' E 012°40'1414.1
2015-Feb-24 06:33N 56°07' E 012°31'1615.9
2015-Feb-24 05:33N 56°22' E 012°22'1716.3
2015-Feb-24 04:30N 56°39' E 012°15'1616.9
2015-Feb-24 03:33N 56°54' E 012°08'1717.0
2015-Feb-24 02:33N 57°10' E 011°54'1716.9
2015-Feb-24 01:33N 57°24' E 011°39'1717.3
2015-Feb-24 00:33N 57°40' E 011°25'1716.9
2015-Feb-23 23:33N 57°56' E 011°13'1716.5
2015-Feb-23 22:33N 58°11' E 011°04'1615.9
2015-Feb-23 21:33N 58°27' E 010°56'1615.5
2015-Feb-23 20:33N 58°41' E 010°48'1615.8
2015-Feb-23 19:33N 58°57' E 010°41'1515.3
2015-Feb-23 18:33N 59°12' E 010°38'1615.9
2015-Feb-23 17:33N 59°28' E 010°34'2713.4
2015-Feb-23 15:33N 59°54' E 010°44'0 0.1
2015-Feb-23 14:23N 59°54' E 010°45'0 0.0
2015-Feb-23 13:26N 59°54' E 010°45'0 0.0
2015-Feb-23 12:26N 59°54' E 010°45'0 0.0
2015-Feb-23 11:26N 59°54' E 010°45'0 0.0
2015-Feb-23 10:26N 59°54' E 010°45'0 0.0
2015-Feb-23 09:29N 59°54' E 010°45'0 0.2
2015-Feb-23 08:34N 59°54' E 010°45'2713.3
2015-Feb-23 06:33N 59°28' E 010°34'1716.7
2015-Feb-23 05:33N 59°11' E 010°39'3215.9
2015-Feb-23 03:33N 58°40' E 010°47'1616.1
2015-Feb-23 02:33N 58°25' E 010°56'1616.4
2015-Feb-23 01:33N 58°09' E 011°05'1616.2
2015-Feb-23 00:33N 57°54' E 011°14'1615.8
2015-Feb-22 23:33N 57°39' E 011°23'1615.8
2015-Feb-22 22:33N 57°23' E 011°32'  
Track history (hours):
 
Tides and Currents Weather Stations Pressure Air Temp Water Temp Dewpoint Dewpoint Depression Visibility Wind Speed Wind Dir Waves Ship Positions

Pearl Of Scandinavia

Last reported at 2015-Mar-04 22:33 UTC. Time now 2015-Mar-04 22:47 UTC.
Position N 57°22' E 011°33'.

Length 176.4 m; beam 34 m; draft 6.215 m.

Type: Ship. MMSI: 219945000.

Date/timePositionNaut miles runAvg speedWind from/ knotsBaromVisibWave heightAir tempDewpointWater temp
2015-Mar-04 22:33N 57°22' E 011°33'1616.0
2015-Mar-04 21:33N 57°07' E 011°42'1615.7
2015-Mar-04 20:33N 56°52' E 011°51'1615.9
2015-Mar-04 19:33N 56°39' E 012°07'1616.0
2015-Mar-04 18:34N 56°24' E 012°19'1716.6
2015-Mar-04 17:34N 56°09' E 012°31'1615.8
2015-Mar-04 16:33N 55°55' E 012°44'1413.5
2015-Mar-04 15:34N 55°42' E 012°36'0 0.3
2015-Mar-04 14:33N 55°42' E 012°36'0 0.0
2015-Mar-04 13:33N 55°42' E 012°36'0 0.0
2015-Mar-04 12:30N 55°42' E 012°36'0 0.0
2015-Mar-04 11:33N 55°42' E 012°36'0 0.0
2015-Mar-04 10:33N 55°42' E 012°36'0 0.0
2015-Mar-04 09:33N 55°42' E 012°36'0 0.2
2015-Mar-04 08:33N 55°42' E 012°36'1211.7
2015-Mar-04 07:33N 55°54' E 012°39'1414.1
2015-Mar-04 06:33N 56°07' E 012°31'1515.2
2015-Mar-04 05:33N 56°21' E 012°21'1615.5
2015-Mar-04 04:33N 56°36' E 012°13'1615.7
2015-Mar-04 03:33N 56°51' E 012°05'1615.8
2015-Mar-04 02:33N 57°06' E 011°56'1615.9
2015-Mar-04 01:33N 57°21' E 011°44'1616.1
2015-Mar-04 00:33N 57°35' E 011°29'1717.2
2015-Mar-03 23:33N 57°50' E 011°16'1615.7
2015-Mar-03 22:33N 58°06' E 011°08'1616.0
2015-Mar-03 21:34N 58°21' E 010°59'1615.8
2015-Mar-03 20:33N 58°36' E 010°50'1515.4
2015-Mar-03 19:33N 58°51' E 010°44'1616.1
2015-Mar-03 18:33N 59°07' E 010°39'1717.4
2015-Mar-03 17:33N 59°24' E 010°33'1716.6
2015-Mar-03 16:33N 59°41' E 010°37'1413.4
2015-Mar-03 15:32N 59°54' E 010°43'1 0.7
2015-Mar-03 14:32N 59°54' E 010°45'0 0.0
2015-Mar-03 13:29N 59°54' E 010°45'0 0.0
2015-Mar-03 12:32N 59°54' E 010°45'0 0.0
2015-Mar-03 11:29N 59°54' E 010°45'0 0.0
2015-Mar-03 10:32N 59°54' E 010°45'0 0.0
2015-Mar-03 09:32N 59°54' E 010°45'0 0.1
2015-Mar-03 08:29N 59°54' E 010°45'2512.9
2015-Mar-03 06:33N 59°30' E 010°35'1716.6
2015-Mar-03 05:33N 59°13' E 010°38'1716.6
2015-Mar-03 04:33N 58°57' E 010°37'1817.6
2015-Mar-03 03:33N 58°39' E 010°33'1716.8
2015-Mar-03 02:33N 58°23' E 010°42'1716.7
2015-Mar-03 01:33N 58°07' E 010°53'1716.6
2015-Mar-03 00:33N 57°52' E 011°03'1616.4
2015-Mar-02 23:33N 57°37' E 011°16'1616.3
2015-Mar-02 22:33N 57°23' E 011°32'1716.7
2015-Mar-02 21:32N 57°07' E 011°42'1616.5
2015-Mar-02 20:33N 56°52' E 011°54'1615.9
2015-Mar-02 19:33N 56°38' E 012°08'1716.5
2015-Mar-02 18:33N 56°23' E 012°20'1615.9
2015-Mar-02 17:33N 56°09' E 012°32'1615.5
2015-Mar-02 16:33N 55°55' E 012°44'1313.4
2015-Mar-02 15:33N 55°42' E 012°36'0 0.1
2015-Mar-02 14:32N 55°42' E 012°36'0 0.0
2015-Mar-02 13:32N 55°42' E 012°36'0 0.0
2015-Mar-02 12:32N 55°42' E 012°36'0 0.0
2015-Mar-02 11:32N 55°42' E 012°36'0 0.0
2015-Mar-02 10:32N 55°42' E 012°36'0 0.0
2015-Mar-02 09:32N 55°42' E 012°36'0 0.0
2015-Mar-02 08:32N 55°42' E 012°36'0 0.0
2015-Mar-02 07:33N 55°42' E 012°36'8 8.3
2015-Mar-02 06:33N 55°50' E 012°41'1414.2
2015-Mar-02 05:33N 56°04' E 012°38'1514.6
2015-Mar-02 04:33N 56°16' E 012°24'1717.2
2015-Mar-02 03:33N 56°33' E 012°15'1818.2
2015-Mar-02 02:33N 56°50' E 012°05'1818.1
2015-Mar-02 01:32N 57°08' E 011°56'1717.7
2015-Mar-02 00:33N 57°23' E 011°41'1817.5
2015-Mar-01 23:33N 57°39' E 011°25'1717.2
2015-Mar-01 22:33N 57°55' E 011°13'1615.8
2015-Mar-01 21:33N 58°10' E 011°05'1414.5
2015-Mar-01 20:33N 58°24' E 010°58'1414.4
2015-Mar-01 19:33N 58°38' E 010°50'1413.6
2015-Mar-01 18:33N 58°51' E 010°44'1413.5
2015-Mar-01 17:33N 59°04' E 010°40'1515.4
2015-Mar-01 16:34N 59°19' E 010°35'1615.5
2015-Mar-01 15:33N 59°35' E 010°38'1913.9
2015-Mar-01 14:13N 59°54' E 010°41'2 2.8
2015-Mar-01 13:33N 59°54' E 010°45'0 0.0
2015-Mar-01 12:33N 59°54' E 010°45'0 0.0
2015-Mar-01 11:33N 59°54' E 010°45'0 0.0
2015-Mar-01 10:33N 59°54' E 010°45'0 0.0
2015-Mar-01 09:33N 59°54' E 010°45'0 0.1
2015-Mar-01 08:30N 59°54' E 010°45'2613.4
2015-Mar-01 06:33N 59°28' E 010°34'1716.6
2015-Mar-01 05:33N 59°12' E 010°39'1616.4
2015-Mar-01 04:33N 58°56' E 010°43'1716.4
2015-Mar-01 03:33N 58°39' E 010°47'1616.7
2015-Mar-01 02:33N 58°24' E 010°56'1716.6
2015-Mar-01 01:34N 58°08' E 011°06'1716.6
2015-Mar-01 00:33N 57°52' E 011°15'1616.3
2015-Feb-28 23:33N 57°36' E 011°25'1616.5
2015-Feb-28 22:33N 57°21' E 011°34'1716.8
2015-Feb-28 21:33N 57°05' E 011°44'1616.0
2015-Feb-28 20:33N 56°50' E 011°56'1615.9
2015-Feb-28 19:33N 56°36' E 012°10'1616.1
2015-Feb-28 18:33N 56°22' E 012°21'1616.3
2015-Feb-28 17:33N 56°07' E 012°34'1615.7
2015-Feb-28 16:33N 55°52' E 012°45'1111.2
2015-Feb-28 15:34N 55°42' E 012°36'0 0.0
2015-Feb-28 14:32N 55°42' E 012°36'0 0.0
2015-Feb-28 13:32N 55°42' E 012°36'0 0.0
2015-Feb-28 12:32N 55°42' E 012°36'0 0.0
2015-Feb-28 11:32N 55°42' E 012°36'0 0.0
2015-Feb-28 10:32N 55°42' E 012°36'0 0.0
2015-Feb-28 09:32N 55°42' E 012°36'0 0.3
2015-Feb-28 08:33N 55°42' E 012°36'1111.5
2015-Feb-28 07:33N 55°54' E 012°39'1313.3
2015-Feb-28 06:33N 56°06' E 012°32'1615.9
2015-Feb-28 05:33N 56°21' E 012°21'1716.8
2015-Feb-28 04:33N 56°37' E 012°12'1717.3
2015-Feb-28 03:33N 56°54' E 012°03'1817.5
2015-Feb-28 02:31N 57°11' E 011°54'1617.1
2015-Feb-28 01:33N 57°25' E 011°39'1717.3
2015-Feb-28 00:33N 57°41' E 011°24'1717.3
2015-Feb-27 23:33N 57°57' E 011°13'1615.5
2015-Feb-27 22:33N 58°12' E 011°04'1414.4
2015-Feb-27 21:33N 58°26' E 010°56'3315.5
2015-Feb-27 19:26N 58°58' E 010°42'1516.7
2015-Feb-27 18:33N 59°12' E 010°37'1616.4
2015-Feb-27 17:33N 59°29' E 010°34'1815.0
2015-Feb-27 16:22N 59°46' E 010°33'1011.6
2015-Feb-27 15:33N 59°54' E 010°45'0 0.0
2015-Feb-27 14:33N 59°54' E 010°45'0 0.0
2015-Feb-27 13:33N 59°54' E 010°45'0 0.0
2015-Feb-27 12:33N 59°54' E 010°45'0 0.0
2015-Feb-27 11:30N 59°54' E 010°45'0 0.0
2015-Feb-27 10:30N 59°54' E 010°45'0 0.0
2015-Feb-27 09:33N 59°54' E 010°45'0 0.1
2015-Feb-27 08:34N 59°54' E 010°45'2713.6
2015-Feb-27 06:34N 59°27' E 010°34'1616.4
2015-Feb-27 05:33N 59°11' E 010°39'3215.9
2015-Feb-27 03:33N 58°40' E 010°47'1616.4
2015-Feb-27 02:33N 58°24' E 010°56'1616.4
2015-Feb-27 01:33N 58°08' E 011°05'1616.3
2015-Feb-27 00:33N 57°53' E 011°14'1616.0
2015-Feb-26 23:33N 57°37' E 011°23'1615.7
2015-Feb-26 22:33N 57°23' E 011°33'1716.0
2015-Feb-26 21:32N 57°07' E 011°42'1516.0
2015-Feb-26 20:33N 56°53' E 011°52'1616.3
2015-Feb-26 19:33N 56°39' E 012°07'1615.7
2015-Feb-26 18:33N 56°24' E 012°19'1615.7
2015-Feb-26 17:33N 56°10' E 012°30'1615.7
2015-Feb-26 16:33N 55°56' E 012°43'1313.5
2015-Feb-26 15:33N 55°43' E 012°38'1 1.3
2015-Feb-26 14:32N 55°42' E 012°36'0 0.0
2015-Feb-26 13:29N 55°42' E 012°36'0 0.0
2015-Feb-26 12:32N 55°42' E 012°36'0 0.0
2015-Feb-26 11:32N 55°42' E 012°36'0 0.0
2015-Feb-26 10:29N 55°42' E 012°36'0 0.0
2015-Feb-26 09:32N 55°42' E 012°36'0 0.2
2015-Feb-26 08:34N 55°42' E 012°36'1110.9
2015-Feb-26 07:33N 55°53' E 012°40'1313.3
2015-Feb-26 06:33N 56°06' E 012°34'1515.4
2015-Feb-26 05:33N 56°20' E 012°22'1817.5
2015-Feb-26 04:31N 56°37' E 012°14'1717.5
2015-Feb-26 03:33N 56°54' E 012°05'1817.9
2015-Feb-26 02:33N 57°10' E 011°53'1717.1
2015-Feb-26 01:33N 57°25' E 011°38'1817.7
2015-Feb-26 00:33N 57°41' E 011°24'1717.1
2015-Feb-25 23:33N 57°57' E 011°13'1615.8
2015-Feb-25 22:33N 58°12' E 011°04'1515.1
2015-Feb-25 21:33N 58°27' E 010°55'1515.0
2015-Feb-25 20:33N 58°41' E 010°48'1515.2
2015-Feb-25 19:33N 58°56' E 010°43'1616.3
2015-Feb-25 18:33N 59°12' E 010°38'1716.6
2015-Feb-25 17:33N 59°29' E 010°34'25 2.7
2015-Feb-25 08:18N 59°53' E 010°41'2514.5
2015-Feb-25 06:33N 59°28' E 010°34'1616.4
2015-Feb-25 05:34N 59°12' E 010°39'3216.0
2015-Feb-25 03:32N 58°40' E 010°46'1515.8
2015-Feb-25 02:33N 58°25' E 010°55'1615.8
2015-Feb-25 01:34N 58°10' E 011°05'1616.0
2015-Feb-25 00:34N 57°55' E 011°14'1615.8
2015-Feb-24 23:34N 57°40' E 011°23'1616.1
2015-Feb-24 22:34N 57°24' E 011°32'1616.0
2015-Feb-24 21:34N 57°09' E 011°41'1515.3
2015-Feb-24 20:34N 56°55' E 011°49'1615.7
2015-Feb-24 19:34N 56°41' E 012°05'1615.6
2015-Feb-24 18:34N 56°27' E 012°17'1616.1
2015-Feb-24 17:34N 56°13' E 012°28'1716.7
2015-Feb-24 16:34N 55°58' E 012°42'1514.8
2015-Feb-24 15:33N 55°43' E 012°38'2 1.6
2015-Feb-24 14:32N 55°42' E 012°36'0 0.0
2015-Feb-24 13:32N 55°42' E 012°36'0 0.0
2015-Feb-24 12:32N 55°42' E 012°36'0 0.0
2015-Feb-24 11:32N 55°42' E 012°36'0 0.0
2015-Feb-24 10:32N 55°42' E 012°36'0 0.0
2015-Feb-24 09:32N 55°42' E 012°36'0 0.4
2015-Feb-24 08:33N 55°42' E 012°36'1111.5
2015-Feb-24 07:34N 55°54' E 012°40'1414.1
2015-Feb-24 06:33N 56°07' E 012°31'1615.9
2015-Feb-24 05:33N 56°22' E 012°22'1716.3
2015-Feb-24 04:30N 56°39' E 012°15'1616.9
2015-Feb-24 03:33N 56°54' E 012°08'1717.0
2015-Feb-24 02:33N 57°10' E 011°54'1716.9
2015-Feb-24 01:33N 57°24' E 011°39'1717.3
2015-Feb-24 00:33N 57°40' E 011°25'1716.9
2015-Feb-23 23:33N 57°56' E 011°13'1716.5
2015-Feb-23 22:33N 58°11' E 011°04'1615.9
2015-Feb-23 21:33N 58°27' E 010°56'1615.5
2015-Feb-23 20:33N 58°41' E 010°48'1615.8
2015-Feb-23 19:33N 58°57' E 010°41'1515.3
2015-Feb-23 18:33N 59°12' E 010°38'1615.9
2015-Feb-23 17:33N 59°28' E 010°34'2713.4
2015-Feb-23 15:33N 59°54' E 010°44'0 0.1
2015-Feb-23 14:23N 59°54' E 010°45'0 0.0
2015-Feb-23 13:26N 59°54' E 010°45'0 0.0
2015-Feb-23 12:26N 59°54' E 010°45'0 0.0
2015-Feb-23 11:26N 59°54' E 010°45'0 0.0
2015-Feb-23 10:26N 59°54' E 010°45'0 0.0
2015-Feb-23 09:29N 59°54' E 010°45'0 0.2
2015-Feb-23 08:34N 59°54' E 010°45'2713.3
2015-Feb-23 06:33N 59°28' E 010°34'1716.7
2015-Feb-23 05:33N 59°11' E 010°39'3215.9
2015-Feb-23 03:33N 58°40' E 010°47'1616.1
2015-Feb-23 02:33N 58°25' E 010°56'1616.4
2015-Feb-23 01:33N 58°09' E 011°05'1616.2
2015-Feb-23 00:33N 57°54' E 011°14'1615.8
2015-Feb-22 23:33N 57°39' E 011°23'1615.8
2015-Feb-22 22:33N 57°23' E 011°32'  

Dump ship's entire track history